Salina, KS (67402)

12:58 AM CST on February 14, 2016 (GMT -0600)
Central Salina | | Change Station
CLOSE
Current Station
Personal Weather Station
Location: Salina, KS
Elevation: 1243 ft
Nearby Weather Stations

Elev 1243 ft 38.82 °N, 97.62 °W | Updated 8 seconds ago

Mostly Cloudy
Mostly Cloudy
23.7 °F
Feels Like 24 °F
N
2.2
Wind Variable Wind from SE
Gusts 2.2 mph

Today
High -- | Low -- °F
--% Chance of Precip.
Yesterday
High -- | Low -- °F
Precip. -- in
Pressure 30.10 in
Visibility 10.0 miles
Clouds Clear
Windchill 24 °F
Dew Point 11 °F
Humidity 58%
Rainfall 0.00 in
Snow Depth Not available.
7:23 AM 6:06 PM
Waxing Crescent, 38% visible
METAR KSLN 140653Z 08007KT 10SM CLR M04/M13 A3006 RMK AO2 SLP191 T10391128
Pressure 30.10 in
Visibility 10.0 miles
Clouds Clear
Windchill 24 °F
Dew Point 11 °F
Humidity 58%
Rainfall 0.00 in
Snow Depth Not available.
7:23 AM 6:06 PM
Waxing Crescent, 38% visible
METAR KSLN 140653Z 08007KT 10SM CLR M04/M13 A3006 RMK AO2 SLP191 T10391128

10-Day Weather Forecast

Almanac

Astronomy

Feb. 14, 2016 Rise Set
Actual Time
Civil Twilight
Nautical Twilight
Astronomical Twilight
Moon
Length of Visible Light
Length of Day
Tomorrow will be .
, % of the Moon is Illuminated

Today's Extremes

State Highs State Lows

Community

WunderPhotos

Upload Photos

1,892,757 photos uploaded!

WunderBlog® & News

Nearby

Air Quality

  Air Quality AQ Index Pollutant
Not available.

Snow Depth

Station Depth Elevation

Earthquake Activity

City Distance Mag. Time & Date
Minimum magnitude displayed is 2.5.

Coastal Water Temperatures

Place Temperature

Stations

Nearby Weather Stations

Station Location Temp. Windchill Dew Point Humidity Wind Precip. Elev Updated Type
                   

Watches & Warnings

There are currently no watches in effect.